sensor_id;sensor_type;location;lat;lon;timestamp;P1;durP1;ratioP1;P2;durP2;ratioP2
84019;SDS011;74102;49.084;13.694;2024-02-26T00:02:05;12.20;;;4.93;;
84019;SDS011;74102;49.084;13.694;2024-02-26T00:04:31;11.82;;;5.28;;
84019;SDS011;74102;49.084;13.694;2024-02-26T00:06:57;13.50;;;6.15;;
84019;SDS011;74102;49.084;13.694;2024-02-26T00:09:23;12.02;;;5.82;;
84019;SDS011;74102;49.084;13.694;2024-02-26T00:11:48;14.25;;;5.47;;
84019;SDS011;74102;49.084;13.694;2024-02-26T00:14:13;8.57;;;4.07;;
84019;SDS011;74102;49.084;13.694;2024-02-26T00:16:42;13.15;;;4.72;;
84019;SDS011;74102;49.084;13.694;2024-02-26T00:19:07;10.73;;;4.18;;
84019;SDS011;74102;49.084;13.694;2024-02-26T00:21:33;9.80;;;3.90;;
84019;SDS011;74102;49.084;13.694;2024-02-26T00:23:59;7.28;;;2.83;;
84019;SDS011;74102;49.084;13.694;2024-02-26T00:26:24;6.68;;;2.65;;
84019;SDS011;74102;49.084;13.694;2024-02-26T00:28:50;6.85;;;2.90;;
84019;SDS011;74102;49.084;13.694;2024-02-26T00:31:15;6.35;;;2.80;;
84019;SDS011;74102;49.084;13.694;2024-02-26T00:33:41;6.55;;;2.45;;
84019;SDS011;74102;49.084;13.694;2024-02-26T00:36:06;6.05;;;2.20;;
84019;SDS011;74102;49.084;13.694;2024-02-26T00:38:31;5.95;;;2.50;;
84019;SDS011;74102;49.084;13.694;2024-02-26T00:40:57;5.00;;;1.90;;
84019;SDS011;74102;49.084;13.694;2024-02-26T00:43:22;4.35;;;1.92;;
84019;SDS011;74102;49.084;13.694;2024-02-26T00:45:48;4.85;;;2.00;;
84019;SDS011;74102;49.084;13.694;2024-02-26T00:48:13;5.13;;;1.92;;
84019;SDS011;74102;49.084;13.694;2024-02-26T00:50:39;6.57;;;2.92;;
84019;SDS011;74102;49.084;13.694;2024-02-26T00:53:05;7.05;;;2.80;;
84019;SDS011;74102;49.084;13.694;2024-02-26T00:55:30;6.13;;;2.60;;
84019;SDS011;74102;49.084;13.694;2024-02-26T00:57:55;5.13;;;2.50;;
84019;SDS011;74102;49.084;13.694;2024-02-26T01:00:21;5.90;;;2.40;;
84019;SDS011;74102;49.084;13.694;2024-02-26T01:02:46;6.57;;;3.00;;
84019;SDS011;74102;49.084;13.694;2024-02-26T01:05:12;6.70;;;2.60;;
84019;SDS011;74102;49.084;13.694;2024-02-26T01:07:38;6.55;;;2.38;;
84019;SDS011;74102;49.084;13.694;2024-02-26T01:10:04;6.82;;;2.22;;
84019;SDS011;74102;49.084;13.694;2024-02-26T01:12:31;6.90;;;2.35;;
84019;SDS011;74102;49.084;13.694;2024-02-26T01:14:59;5.18;;;2.40;;
84019;SDS011;74102;49.084;13.694;2024-02-26T01:17:30;6.13;;;2.55;;
84019;SDS011;74102;49.084;13.694;2024-02-26T01:19:56;4.32;;;2.10;;
84019;SDS011;74102;49.084;13.694;2024-02-26T01:22:21;4.32;;;1.92;;
84019;SDS011;74102;49.084;13.694;2024-02-26T01:24:47;5.68;;;2.00;;
84019;SDS011;74102;49.084;13.694;2024-02-26T01:27:13;5.28;;;2.10;;
84019;SDS011;74102;49.084;13.694;2024-02-26T01:29:40;5.07;;;2.33;;
84019;SDS011;74102;49.084;13.694;2024-02-26T01:32:06;6.78;;;2.50;;
84019;SDS011;74102;49.084;13.694;2024-02-26T01:34:31;6.20;;;2.70;;
84019;SDS011;74102;49.084;13.694;2024-02-26T01:36:57;7.07;;;3.05;;
84019;SDS011;74102;49.084;13.694;2024-02-26T01:39:22;5.18;;;2.13;;
84019;SDS011;74102;49.084;13.694;2024-02-26T01:41:48;5.13;;;1.83;;
84019;SDS011;74102;49.084;13.694;2024-02-26T01:44:13;4.72;;;1.75;;
84019;SDS011;74102;49.084;13.694;2024-02-26T01:46:39;3.80;;;1.70;;
84019;SDS011;74102;49.084;13.694;2024-02-26T01:49:05;4.68;;;1.73;;
84019;SDS011;74102;49.084;13.694;2024-02-26T01:51:31;3.85;;;1.50;;
84019;SDS011;74102;49.084;13.694;2024-02-26T01:53:59;3.42;;;1.55;;
84019;SDS011;74102;49.084;13.694;2024-02-26T01:56:26;4.22;;;1.70;;
84019;SDS011;74102;49.084;13.694;2024-02-26T01:58:55;3.85;;;1.70;;
84019;SDS011;74102;49.084;13.694;2024-02-26T02:01:21;4.97;;;1.70;;
84019;SDS011;74102;49.084;13.694;2024-02-26T02:03:50;3.95;;;1.52;;
84019;SDS011;74102;49.084;13.694;2024-02-26T02:06:15;3.25;;;1.40;;
84019;SDS011;74102;49.084;13.694;2024-02-26T02:08:41;4.57;;;1.48;;
84019;SDS011;74102;49.084;13.694;2024-02-26T02:11:07;5.38;;;1.50;;
84019;SDS011;74102;49.084;13.694;2024-02-26T02:13:33;4.97;;;1.83;;
84019;SDS011;74102;49.084;13.694;2024-02-26T02:15:58;3.75;;;1.70;;
84019;SDS011;74102;49.084;13.694;2024-02-26T02:18:23;3.88;;;1.48;;
84019;SDS011;74102;49.084;13.694;2024-02-26T02:20:49;3.85;;;1.60;;
84019;SDS011;74102;49.084;13.694;2024-02-26T02:23:14;6.07;;;2.05;;
84019;SDS011;74102;49.084;13.694;2024-02-26T02:25:39;5.28;;;2.08;;
84019;SDS011;74102;49.084;13.694;2024-02-26T02:28:05;5.25;;;2.13;;
84019;SDS011;74102;49.084;13.694;2024-02-26T02:30:31;4.50;;;2.15;;
84019;SDS011;74102;49.084;13.694;2024-02-26T02:32:58;6.40;;;2.42;;
84019;SDS011;74102;49.084;13.694;2024-02-26T02:35:24;3.58;;;1.63;;
84019;SDS011;74102;49.084;13.694;2024-02-26T02:37:51;4.15;;;1.73;;
84019;SDS011;74102;49.084;13.694;2024-02-26T02:40:17;5.97;;;2.03;;
84019;SDS011;74102;49.084;13.694;2024-02-26T02:42:42;4.22;;;1.77;;
84019;SDS011;74102;49.084;13.694;2024-02-26T02:45:07;3.90;;;1.30;;
84019;SDS011;74102;49.084;13.694;2024-02-26T02:47:35;3.83;;;1.70;;
84019;SDS011;74102;49.084;13.694;2024-02-26T02:50:02;2.90;;;1.52;;
84019;SDS011;74102;49.084;13.694;2024-02-26T02:52:27;4.20;;;1.70;;
84019;SDS011;74102;49.084;13.694;2024-02-26T02:54:53;5.03;;;2.25;;
84019;SDS011;74102;49.084;13.694;2024-02-26T02:57:18;4.93;;;2.05;;
84019;SDS011;74102;49.084;13.694;2024-02-26T02:59:43;4.25;;;1.80;;
84019;SDS011;74102;49.084;13.694;2024-02-26T03:02:09;4.43;;;2.10;;
84019;SDS011;74102;49.084;13.694;2024-02-26T03:04:34;4.15;;;1.67;;
84019;SDS011;74102;49.084;13.694;2024-02-26T03:06:59;4.43;;;1.90;;
84019;SDS011;74102;49.084;13.694;2024-02-26T03:09:25;4.38;;;1.90;;
84019;SDS011;74102;49.084;13.694;2024-02-26T03:11:51;3.10;;;1.25;;
84019;SDS011;74102;49.084;13.694;2024-02-26T03:14:16;3.25;;;1.40;;
84019;SDS011;74102;49.084;13.694;2024-02-26T03:16:41;4.00;;;1.30;;
84019;SDS011;74102;49.084;13.694;2024-02-26T03:19:07;3.15;;;1.27;;
84019;SDS011;74102;49.084;13.694;2024-02-26T03:21:32;3.40;;;1.30;;
84019;SDS011;74102;49.084;13.694;2024-02-26T03:23:57;3.25;;;1.40;;
84019;SDS011;74102;49.084;13.694;2024-02-26T03:26:23;2.78;;;1.20;;
84019;SDS011;74102;49.084;13.694;2024-02-26T03:28:48;2.60;;;1.15;;
84019;SDS011;74102;49.084;13.694;2024-02-26T03:31:14;3.47;;;1.20;;
84019;SDS011;74102;49.084;13.694;2024-02-26T03:33:39;3.25;;;1.35;;
84019;SDS011;74102;49.084;13.694;2024-02-26T03:36:05;3.25;;;1.35;;
84019;SDS011;74102;49.084;13.694;2024-02-26T03:38:32;3.00;;;1.17;;
84019;SDS011;74102;49.084;13.694;2024-02-26T03:40:57;3.60;;;1.40;;
84019;SDS011;74102;49.084;13.694;2024-02-26T03:43:23;2.97;;;1.05;;
84019;SDS011;74102;49.084;13.694;2024-02-26T03:45:49;3.42;;;1.25;;
84019;SDS011;74102;49.084;13.694;2024-02-26T03:48:14;2.78;;;0.93;;
84019;SDS011;74102;49.084;13.694;2024-02-26T03:50:39;2.65;;;1.10;;
84019;SDS011;74102;49.084;13.694;2024-02-26T03:53:05;3.78;;;1.40;;
84019;SDS011;74102;49.084;13.694;2024-02-26T03:55:30;2.95;;;1.02;;
84019;SDS011;74102;49.084;13.694;2024-02-26T03:57:55;2.47;;;0.82;;
84019;SDS011;74102;49.084;13.694;2024-02-26T04:00:21;2.30;;;0.98;;
84019;SDS011;74102;49.084;13.694;2024-02-26T04:02:47;2.80;;;0.90;;
84019;SDS011;74102;49.084;13.694;2024-02-26T04:05:13;3.00;;;1.02;;
84019;SDS011;74102;49.084;13.694;2024-02-26T04:07:39;3.85;;;1.30;;
84019;SDS011;74102;49.084;13.694;2024-02-26T04:10:12;2.63;;;1.00;;
84019;SDS011;74102;49.084;13.694;2024-02-26T04:12:38;3.30;;;0.90;;
84019;SDS011;74102;49.084;13.694;2024-02-26T04:15:06;2.60;;;1.08;;
84019;SDS011;74102;49.084;13.694;2024-02-26T04:17:32;1.42;;;0.68;;
84019;SDS011;74102;49.084;13.694;2024-02-26T04:19:57;2.35;;;0.80;;
84019;SDS011;74102;49.084;13.694;2024-02-26T04:22:23;2.17;;;0.80;;
84019;SDS011;74102;49.084;13.694;2024-02-26T04:24:49;2.53;;;0.95;;
84019;SDS011;74102;49.084;13.694;2024-02-26T04:27:14;2.35;;;0.93;;
84019;SDS011;74102;49.084;13.694;2024-02-26T04:29:39;3.45;;;1.30;;
84019;SDS011;74102;49.084;13.694;2024-02-26T04:32:05;2.60;;;1.00;;
84019;SDS011;74102;49.084;13.694;2024-02-26T04:34:30;3.33;;;0.93;;
84019;SDS011;74102;49.084;13.694;2024-02-26T04:36:56;3.70;;;1.23;;
84019;SDS011;74102;49.084;13.694;2024-02-26T04:39:21;3.22;;;1.05;;
84019;SDS011;74102;49.084;13.694;2024-02-26T04:41:46;3.15;;;1.20;;
84019;SDS011;74102;49.084;13.694;2024-02-26T04:44:12;2.30;;;0.93;;
84019;SDS011;74102;49.084;13.694;2024-02-26T04:46:37;2.75;;;1.02;;
84019;SDS011;74102;49.084;13.694;2024-02-26T04:49:02;1.70;;;0.80;;
84019;SDS011;74102;49.084;13.694;2024-02-26T04:51:28;2.90;;;1.10;;
84019;SDS011;74102;49.084;13.694;2024-02-26T04:53:53;3.65;;;1.25;;
84019;SDS011;74102;49.084;13.694;2024-02-26T04:56:20;3.55;;;1.38;;
84019;SDS011;74102;49.084;13.694;2024-02-26T04:58:46;3.30;;;1.42;;
84019;SDS011;74102;49.084;13.694;2024-02-26T05:01:11;5.20;;;2.63;;
84019;SDS011;74102;49.084;13.694;2024-02-26T05:03:37;5.20;;;2.50;;
84019;SDS011;74102;49.084;13.694;2024-02-26T05:06:02;6.00;;;3.33;;
84019;SDS011;74102;49.084;13.694;2024-02-26T05:08:27;9.13;;;3.22;;
84019;SDS011;74102;49.084;13.694;2024-02-26T05:10:54;5.15;;;3.35;;
84019;SDS011;74102;49.084;13.694;2024-02-26T05:13:19;6.07;;;3.42;;
84019;SDS011;74102;49.084;13.694;2024-02-26T05:15:44;5.85;;;3.45;;
84019;SDS011;74102;49.084;13.694;2024-02-26T05:18:11;5.20;;;3.05;;
84019;SDS011;74102;49.084;13.694;2024-02-26T05:20:37;6.57;;;2.78;;
84019;SDS011;74102;49.084;13.694;2024-02-26T05:23:03;4.38;;;2.13;;
84019;SDS011;74102;49.084;13.694;2024-02-26T05:25:28;4.75;;;2.60;;
84019;SDS011;74102;49.084;13.694;2024-02-26T05:27:54;4.18;;;2.30;;
84019;SDS011;74102;49.084;13.694;2024-02-26T05:30:19;5.45;;;2.60;;
84019;SDS011;74102;49.084;13.694;2024-02-26T05:32:45;5.22;;;2.92;;
84019;SDS011;74102;49.084;13.694;2024-02-26T05:35:10;5.20;;;2.90;;
84019;SDS011;74102;49.084;13.694;2024-02-26T05:37:36;5.95;;;3.08;;
84019;SDS011;74102;49.084;13.694;2024-02-26T05:40:01;5.70;;;3.00;;
84019;SDS011;74102;49.084;13.694;2024-02-26T05:42:29;5.45;;;2.78;;
84019;SDS011;74102;49.084;13.694;2024-02-26T05:44:54;6.47;;;3.35;;
84019;SDS011;74102;49.084;13.694;2024-02-26T05:47:20;4.20;;;2.55;;
84019;SDS011;74102;49.084;13.694;2024-02-26T05:49:45;5.72;;;3.15;;
84019;SDS011;74102;49.084;13.694;2024-02-26T05:52:10;5.30;;;2.80;;
84019;SDS011;74102;49.084;13.694;2024-02-26T05:54:36;5.03;;;2.65;;
84019;SDS011;74102;49.084;13.694;2024-02-26T05:57:01;3.70;;;1.80;;
84019;SDS011;74102;49.084;13.694;2024-02-26T05:59:27;4.03;;;1.80;;
84019;SDS011;74102;49.084;13.694;2024-02-26T06:01:52;3.42;;;1.60;;
84019;SDS011;74102;49.084;13.694;2024-02-26T06:04:17;4.53;;;2.05;;
84019;SDS011;74102;49.084;13.694;2024-02-26T06:06:46;5.25;;;2.55;;
84019;SDS011;74102;49.084;13.694;2024-02-26T06:09:11;4.25;;;2.25;;
84019;SDS011;74102;49.084;13.694;2024-02-26T06:11:37;5.10;;;2.58;;
84019;SDS011;74102;49.084;13.694;2024-02-26T06:14:02;5.28;;;2.17;;
84019;SDS011;74102;49.084;13.694;2024-02-26T06:16:28;3.50;;;1.50;;
84019;SDS011;74102;49.084;13.694;2024-02-26T06:18:53;3.53;;;1.63;;
84019;SDS011;74102;49.084;13.694;2024-02-26T06:21:19;4.32;;;1.92;;
84019;SDS011;74102;49.084;13.694;2024-02-26T06:23:44;4.13;;;1.55;;
84019;SDS011;74102;49.084;13.694;2024-02-26T06:26:09;3.80;;;1.75;;
84019;SDS011;74102;49.084;13.694;2024-02-26T06:28:35;4.32;;;2.03;;
84019;SDS011;74102;49.084;13.694;2024-02-26T06:31:01;4.38;;;2.00;;
84019;SDS011;74102;49.084;13.694;2024-02-26T06:33:26;4.53;;;2.20;;
84019;SDS011;74102;49.084;13.694;2024-02-26T06:35:52;7.03;;;3.25;;
84019;SDS011;74102;49.084;13.694;2024-02-26T06:38:17;5.18;;;2.80;;
84019;SDS011;74102;49.084;13.694;2024-02-26T06:40:43;4.93;;;2.63;;
84019;SDS011;74102;49.084;13.694;2024-02-26T06:43:09;5.82;;;2.83;;
84019;SDS011;74102;49.084;13.694;2024-02-26T06:45:35;6.57;;;3.10;;
84019;SDS011;74102;49.084;13.694;2024-02-26T06:48:00;5.88;;;3.03;;
84019;SDS011;74102;49.084;13.694;2024-02-26T06:50:25;5.18;;;2.53;;
84019;SDS011;74102;49.084;13.694;2024-02-26T06:52:51;5.95;;;2.97;;
84019;SDS011;74102;49.084;13.694;2024-02-26T06:55:16;4.72;;;2.47;;
84019;SDS011;74102;49.084;13.694;2024-02-26T06:57:42;5.55;;;3.10;;
84019;SDS011;74102;49.084;13.694;2024-02-26T07:00:07;10.85;;;4.95;;
84019;SDS011;74102;49.084;13.694;2024-02-26T07:02:33;15.68;;;7.85;;
84019;SDS011;74102;49.084;13.694;2024-02-26T07:04:59;19.13;;;8.57;;
84019;SDS011;74102;49.084;13.694;2024-02-26T07:07:24;13.15;;;6.68;;
84019;SDS011;74102;49.084;13.694;2024-02-26T07:09:50;19.40;;;8.98;;
84019;SDS011;74102;49.084;13.694;2024-02-26T07:12:15;22.17;;;11.93;;
84019;SDS011;74102;49.084;13.694;2024-02-26T07:14:41;28.90;;;13.85;;
84019;SDS011;74102;49.084;13.694;2024-02-26T07:17:07;24.90;;;12.73;;
84019;SDS011;74102;49.084;13.694;2024-02-26T07:19:33;28.55;;;13.57;;
84019;SDS011;74102;49.084;13.694;2024-02-26T07:21:58;31.38;;;15.63;;
84019;SDS011;74102;49.084;13.694;2024-02-26T07:24:26;45.88;;;22.48;;
84019;SDS011;74102;49.084;13.694;2024-02-26T07:26:51;36.67;;;17.80;;
84019;SDS011;74102;49.084;13.694;2024-02-26T07:29:16;32.67;;;16.45;;
84019;SDS011;74102;49.084;13.694;2024-02-26T07:31:42;26.95;;;13.60;;
84019;SDS011;74102;49.084;13.694;2024-02-26T07:34:07;26.67;;;12.60;;
84019;SDS011;74102;49.084;13.694;2024-02-26T07:36:33;31.40;;;16.55;;
84019;SDS011;74102;49.084;13.694;2024-02-26T07:38:58;38.25;;;17.77;;
84019;SDS011;74102;49.084;13.694;2024-02-26T07:41:23;41.13;;;16.83;;
84019;SDS011;74102;49.084;13.694;2024-02-26T07:43:49;22.42;;;11.35;;
84019;SDS011;74102;49.084;13.694;2024-02-26T07:46:14;20.35;;;9.73;;
84019;SDS011;74102;49.084;13.694;2024-02-26T07:48:39;22.17;;;10.35;;
84019;SDS011;74102;49.084;13.694;2024-02-26T07:51:06;26.20;;;10.10;;
84019;SDS011;74102;49.084;13.694;2024-02-26T07:53:31;21.10;;;9.63;;
84019;SDS011;74102;49.084;13.694;2024-02-26T07:55:56;19.98;;;9.43;;
84019;SDS011;74102;49.084;13.694;2024-02-26T07:58:23;15.98;;;8.55;;
84019;SDS011;74102;49.084;13.694;2024-02-26T08:00:48;12.25;;;6.45;;
84019;SDS011;74102;49.084;13.694;2024-02-26T08:03:14;7.80;;;4.35;;
84019;SDS011;74102;49.084;13.694;2024-02-26T08:05:40;7.32;;;3.75;;
84019;SDS011;74102;49.084;13.694;2024-02-26T08:08:07;11.15;;;3.55;;
84019;SDS011;74102;49.084;13.694;2024-02-26T08:10:33;7.95;;;3.90;;
84019;SDS011;74102;49.084;13.694;2024-02-26T08:12:58;7.03;;;3.38;;
84019;SDS011;74102;49.084;13.694;2024-02-26T08:15:30;7.38;;;3.22;;
84019;SDS011;74102;49.084;13.694;2024-02-26T08:17:56;5.30;;;2.60;;
84019;SDS011;74102;49.084;13.694;2024-02-26T08:20:22;5.63;;;2.45;;
84019;SDS011;74102;49.084;13.694;2024-02-26T08:22:47;6.93;;;2.92;;
84019;SDS011;74102;49.084;13.694;2024-02-26T08:25:12;4.90;;;2.15;;
84019;SDS011;74102;49.084;13.694;2024-02-26T08:27:38;5.35;;;2.42;;
84019;SDS011;74102;49.084;13.694;2024-02-26T08:30:03;4.90;;;2.30;;
84019;SDS011;74102;49.084;13.694;2024-02-26T08:32:29;4.53;;;2.30;;
84019;SDS011;74102;49.084;13.694;2024-02-26T08:34:54;7.43;;;2.95;;
84019;SDS011;74102;49.084;13.694;2024-02-26T08:37:20;19.23;;;6.68;;
84019;SDS011;74102;49.084;13.694;2024-02-26T08:39:45;15.57;;;6.18;;
84019;SDS011;74102;49.084;13.694;2024-02-26T08:42:11;12.00;;;4.63;;
84019;SDS011;74102;49.084;13.694;2024-02-26T08:44:36;6.82;;;2.83;;
84019;SDS011;74102;49.084;13.694;2024-02-26T08:47:01;5.88;;;2.40;;
84019;SDS011;74102;49.084;13.694;2024-02-26T08:49:27;6.78;;;2.95;;
84019;SDS011;74102;49.084;13.694;2024-02-26T08:51:52;6.40;;;2.40;;
84019;SDS011;74102;49.084;13.694;2024-02-26T08:54:18;6.53;;;3.38;;
84019;SDS011;74102;49.084;13.694;2024-02-26T08:56:43;7.05;;;3.10;;
84019;SDS011;74102;49.084;13.694;2024-02-26T08:59:09;8.00;;;3.17;;
84019;SDS011;74102;49.084;13.694;2024-02-26T09:01:34;7.78;;;3.65;;
84019;SDS011;74102;49.084;13.694;2024-02-26T09:03:59;6.53;;;3.03;;
84019;SDS011;74102;49.084;13.694;2024-02-26T09:06:25;7.88;;;2.90;;
84019;SDS011;74102;49.084;13.694;2024-02-26T09:08:50;6.10;;;2.70;;
84019;SDS011;74102;49.084;13.694;2024-02-26T09:11:16;7.45;;;2.85;;
84019;SDS011;74102;49.084;13.694;2024-02-26T09:13:41;5.53;;;2.35;;
84019;SDS011;74102;49.084;13.694;2024-02-26T09:16:07;8.00;;;3.30;;
84019;SDS011;74102;49.084;13.694;2024-02-26T09:18:32;11.75;;;5.82;;
84019;SDS011;74102;49.084;13.694;2024-02-26T09:20:58;10.13;;;4.65;;
84019;SDS011;74102;49.084;13.694;2024-02-26T09:23:23;6.63;;;3.35;;
84019;SDS011;74102;49.084;13.694;2024-02-26T09:25:49;6.60;;;3.15;;
84019;SDS011;74102;49.084;13.694;2024-02-26T09:28:14;8.63;;;3.65;;
84019;SDS011;74102;49.084;13.694;2024-02-26T09:30:42;9.52;;;3.40;;
84019;SDS011;74102;49.084;13.694;2024-02-26T09:33:08;7.18;;;3.28;;
84019;SDS011;74102;49.084;13.694;2024-02-26T09:35:33;7.80;;;3.38;;
84019;SDS011;74102;49.084;13.694;2024-02-26T09:37:59;5.97;;;2.92;;
84019;SDS011;74102;49.084;13.694;2024-02-26T09:40:24;7.95;;;3.08;;
84019;SDS011;74102;49.084;13.694;2024-02-26T09:42:50;6.47;;;2.85;;
84019;SDS011;74102;49.084;13.694;2024-02-26T09:45:21;7.13;;;3.53;;
84019;SDS011;74102;49.084;13.694;2024-02-26T09:47:49;9.98;;;4.10;;
84019;SDS011;74102;49.084;13.694;2024-02-26T09:50:16;8.80;;;3.30;;
84019;SDS011;74102;49.084;13.694;2024-02-26T09:52:43;10.88;;;4.30;;
84019;SDS011;74102;49.084;13.694;2024-02-26T09:55:08;15.45;;;5.18;;
84019;SDS011;74102;49.084;13.694;2024-02-26T09:57:35;14.88;;;5.72;;
84019;SDS011;74102;49.084;13.694;2024-02-26T10:00:02;9.70;;;4.15;;
84019;SDS011;74102;49.084;13.694;2024-02-26T10:02:32;10.90;;;4.97;;
84019;SDS011;74102;49.084;13.694;2024-02-26T10:05:02;8.93;;;4.60;;
84019;SDS011;74102;49.084;13.694;2024-02-26T10:07:30;10.85;;;4.75;;
84019;SDS011;74102;49.084;13.694;2024-02-26T10:09:56;11.23;;;4.95;;
84019;SDS011;74102;49.084;13.694;2024-02-26T10:12:21;9.82;;;4.45;;
84019;SDS011;74102;49.084;13.694;2024-02-26T10:14:47;9.25;;;4.55;;
84019;SDS011;74102;49.084;13.694;2024-02-26T10:17:12;11.15;;;4.72;;
84019;SDS011;74102;49.084;13.694;2024-02-26T10:19:38;11.63;;;3.92;;
84019;SDS011;74102;49.084;13.694;2024-02-26T10:22:03;14.85;;;4.07;;
84019;SDS011;74102;49.084;13.694;2024-02-26T10:24:29;8.05;;;3.80;;
84019;SDS011;74102;49.084;13.694;2024-02-26T10:26:56;9.32;;;4.28;;
84019;SDS011;74102;49.084;13.694;2024-02-26T10:29:23;7.70;;;3.75;;
84019;SDS011;74102;49.084;13.694;2024-02-26T10:31:50;9.60;;;4.20;;
84019;SDS011;74102;49.084;13.694;2024-02-26T10:34:15;9.57;;;4.25;;
84019;SDS011;74102;49.084;13.694;2024-02-26T10:36:41;7.50;;;3.92;;
84019;SDS011;74102;49.084;13.694;2024-02-26T10:39:07;11.23;;;4.97;;
84019;SDS011;74102;49.084;13.694;2024-02-26T10:41:33;11.57;;;5.20;;
84019;SDS011;74102;49.084;13.694;2024-02-26T10:43:59;10.57;;;5.20;;
84019;SDS011;74102;49.084;13.694;2024-02-26T10:46:27;10.38;;;4.60;;
84019;SDS011;74102;49.084;13.694;2024-02-26T10:48:53;9.68;;;4.53;;
84019;SDS011;74102;49.084;13.694;2024-02-26T10:51:28;8.55;;;4.45;;
84019;SDS011;74102;49.084;13.694;2024-02-26T10:53:55;9.38;;;4.32;;
84019;SDS011;74102;49.084;13.694;2024-02-26T10:56:26;7.30;;;3.80;;
84019;SDS011;74102;49.084;13.694;2024-02-26T10:58:53;7.75;;;4.15;;
84019;SDS011;74102;49.084;13.694;2024-02-26T11:01:20;8.27;;;4.20;;
84019;SDS011;74102;49.084;13.694;2024-02-26T11:03:51;7.35;;;3.58;;
84019;SDS011;74102;49.084;13.694;2024-02-26T11:06:17;10.57;;;4.90;;
84019;SDS011;74102;49.084;13.694;2024-02-26T11:08:47;10.07;;;4.90;;
84019;SDS011;74102;49.084;13.694;2024-02-26T11:11:13;10.50;;;5.43;;
84019;SDS011;74102;49.084;13.694;2024-02-26T11:13:40;8.90;;;5.15;;
84019;SDS011;74102;49.084;13.694;2024-02-26T11:16:09;9.68;;;4.97;;
84019;SDS011;74102;49.084;13.694;2024-02-26T11:18:36;9.38;;;4.43;;
84019;SDS011;74102;49.084;13.694;2024-02-26T11:21:04;9.93;;;5.13;;
84019;SDS011;74102;49.084;13.694;2024-02-26T11:23:33;10.25;;;4.97;;
84019;SDS011;74102;49.084;13.694;2024-02-26T11:26:01;12.32;;;4.78;;
84019;SDS011;74102;49.084;13.694;2024-02-26T11:28:31;10.00;;;5.03;;
84019;SDS011;74102;49.084;13.694;2024-02-26T11:30:59;8.05;;;4.38;;
84019;SDS011;74102;49.084;13.694;2024-02-26T11:33:25;9.80;;;4.53;;
84019;SDS011;74102;49.084;13.694;2024-02-26T11:35:52;9.43;;;4.43;;
84019;SDS011;74102;49.084;13.694;2024-02-26T11:38:19;8.50;;;4.55;;
84019;SDS011;74102;49.084;13.694;2024-02-26T11:40:48;8.93;;;4.70;;
84019;SDS011;74102;49.084;13.694;2024-02-26T11:43:15;13.77;;;5.90;;
84019;SDS011;74102;49.084;13.694;2024-02-26T11:50:40;9.77;;;5.05;;
84019;SDS011;74102;49.084;13.694;2024-02-26T11:55:48;9.32;;;4.70;;
84019;SDS011;74102;49.084;13.694;2024-02-26T11:58:33;9.90;;;4.82;;
84019;SDS011;74102;49.084;13.694;2024-02-26T12:00:58;14.35;;;5.70;;
84019;SDS011;74102;49.084;13.694;2024-02-26T12:03:24;11.55;;;6.88;;
84019;SDS011;74102;49.084;13.694;2024-02-26T12:05:49;12.38;;;6.10;;
84019;SDS011;74102;49.084;13.694;2024-02-26T12:08:16;12.38;;;6.03;;
84019;SDS011;74102;49.084;13.694;2024-02-26T12:10:44;17.05;;;7.63;;
84019;SDS011;74102;49.084;13.694;2024-02-26T12:13:11;13.85;;;6.97;;
84019;SDS011;74102;49.084;13.694;2024-02-26T12:15:42;17.75;;;7.32;;
84019;SDS011;74102;49.084;13.694;2024-02-26T12:18:09;17.38;;;8.45;;
84019;SDS011;74102;49.084;13.694;2024-02-26T12:20:38;16.58;;;8.68;;
84019;SDS011;74102;49.084;13.694;2024-02-26T12:23:04;18.60;;;8.68;;
84019;SDS011;74102;49.084;13.694;2024-02-26T12:25:30;15.98;;;8.07;;
84019;SDS011;74102;49.084;13.694;2024-02-26T12:27:56;17.42;;;7.60;;
84019;SDS011;74102;49.084;13.694;2024-02-26T12:30:22;16.83;;;8.15;;
84019;SDS011;74102;49.084;13.694;2024-02-26T12:32:50;13.05;;;6.80;;
84019;SDS011;74102;49.084;13.694;2024-02-26T12:35:16;10.88;;;6.22;;
84019;SDS011;74102;49.084;13.694;2024-02-26T12:37:43;12.20;;;7.00;;
84019;SDS011;74102;49.084;13.694;2024-02-26T12:40:09;18.88;;;8.32;;
84019;SDS011;74102;49.084;13.694;2024-02-26T12:42:35;15.32;;;7.45;;
84019;SDS011;74102;49.084;13.694;2024-02-26T12:45:08;18.40;;;7.50;;
84019;SDS011;74102;49.084;13.694;2024-02-26T12:47:38;19.27;;;8.60;;
84019;SDS011;74102;49.084;13.694;2024-02-26T12:50:04;19.13;;;7.72;;
84019;SDS011;74102;49.084;13.694;2024-02-26T12:52:34;17.10;;;8.18;;
84019;SDS011;74102;49.084;13.694;2024-02-26T12:55:02;14.95;;;7.90;;
84019;SDS011;74102;49.084;13.694;2024-02-26T12:57:33;16.33;;;7.95;;
84019;SDS011;74102;49.084;13.694;2024-02-26T13:00:00;16.10;;;8.13;;
84019;SDS011;74102;49.084;13.694;2024-02-26T13:02:27;37.80;;;16.30;;
84019;SDS011;74102;49.084;13.694;2024-02-26T13:04:54;24.20;;;11.38;;
84019;SDS011;74102;49.084;13.694;2024-02-26T13:07:20;39.65;;;18.77;;
84019;SDS011;74102;49.084;13.694;2024-02-26T13:09:46;31.33;;;15.88;;
84019;SDS011;74102;49.084;13.694;2024-02-26T13:12:11;19.83;;;9.80;;
84019;SDS011;74102;49.084;13.694;2024-02-26T13:14:37;17.42;;;8.35;;
84019;SDS011;74102;49.084;13.694;2024-02-26T13:17:02;12.80;;;7.95;;
84019;SDS011;74102;49.084;13.694;2024-02-26T13:19:28;22.38;;;11.13;;
84019;SDS011;74102;49.084;13.694;2024-02-26T13:21:54;21.58;;;12.35;;
84019;SDS011;74102;49.084;13.694;2024-02-26T13:24:19;24.38;;;12.40;;
84019;SDS011;74102;49.084;13.694;2024-02-26T13:26:45;19.95;;;11.70;;
84019;SDS011;74102;49.084;13.694;2024-02-26T13:29:20;13.10;;;7.07;;
84019;SDS011;74102;49.084;13.694;2024-02-26T13:31:45;13.20;;;7.45;;
84019;SDS011;74102;49.084;13.694;2024-02-26T13:34:11;13.02;;;6.60;;
84019;SDS011;74102;49.084;13.694;2024-02-26T13:36:49;14.93;;;9.02;;
84019;SDS011;74102;49.084;13.694;2024-02-26T13:39:20;16.73;;;8.15;;
84019;SDS011;74102;49.084;13.694;2024-02-26T13:41:47;15.43;;;9.65;;
84019;SDS011;74102;49.084;13.694;2024-02-26T13:44:12;12.95;;;7.53;;
84019;SDS011;74102;49.084;13.694;2024-02-26T13:46:38;13.25;;;6.95;;
84019;SDS011;74102;49.084;13.694;2024-02-26T13:49:04;10.80;;;5.90;;
84019;SDS011;74102;49.084;13.694;2024-02-26T13:51:29;12.35;;;6.97;;
84019;SDS011;74102;49.084;13.694;2024-02-26T13:54:00;12.30;;;6.40;;
84019;SDS011;74102;49.084;13.694;2024-02-26T13:56:25;15.75;;;7.85;;
84019;SDS011;74102;49.084;13.694;2024-02-26T13:58:51;22.65;;;11.02;;
84019;SDS011;74102;49.084;13.694;2024-02-26T14:01:16;14.70;;;7.20;;
84019;SDS011;74102;49.084;13.694;2024-02-26T14:03:42;15.50;;;7.50;;
84019;SDS011;74102;49.084;13.694;2024-02-26T14:06:07;16.55;;;8.48;;
84019;SDS011;74102;49.084;13.694;2024-02-26T14:08:32;13.90;;;7.47;;
84019;SDS011;74102;49.084;13.694;2024-02-26T14:10:58;12.00;;;6.60;;
84019;SDS011;74102;49.084;13.694;2024-02-26T14:13:25;19.27;;;9.02;;
84019;SDS011;74102;49.084;13.694;2024-02-26T14:15:50;14.20;;;7.15;;
84019;SDS011;74102;49.084;13.694;2024-02-26T14:18:16;14.70;;;8.15;;
84019;SDS011;74102;49.084;13.694;2024-02-26T14:20:41;15.15;;;7.45;;
84019;SDS011;74102;49.084;13.694;2024-02-26T14:23:06;14.20;;;7.47;;
84019;SDS011;74102;49.084;13.694;2024-02-26T14:25:33;17.08;;;8.55;;
84019;SDS011;74102;49.084;13.694;2024-02-26T14:27:58;14.13;;;7.90;;
84019;SDS011;74102;49.084;13.694;2024-02-26T14:30:24;20.42;;;8.95;;